createdAt,value
2023-01-02T00:00:36.401Z,1021
2023-01-02T00:02:37.011Z,1021
2023-01-02T00:04:36.800Z,1021
2023-01-02T00:06:36.884Z,1021
2023-01-02T00:08:36.886Z,1021
2023-01-02T00:10:35.976Z,1021
2023-01-02T00:12:37.375Z,1021
2023-01-02T00:14:37.215Z,1021
2023-01-02T00:16:36.890Z,1021
2023-01-02T00:18:36.866Z,1021
2023-01-02T00:20:35.970Z,1020
2023-01-02T00:22:36.462Z,1020
2023-01-02T00:24:36.464Z,1020
2023-01-02T00:26:35.979Z,1020
2023-01-02T00:28:35.972Z,1020
2023-01-02T00:30:38.558Z,1020
2023-01-02T00:32:37.347Z,1020
2023-01-02T00:34:36.837Z,1020
2023-01-02T00:36:37.305Z,1020
2023-01-02T00:38:38.122Z,1020
2023-01-02T00:40:36.827Z,1020
2023-01-02T00:42:37.657Z,1020
2023-01-02T00:44:35.973Z,1020
2023-01-02T00:46:36.036Z,1020
2023-01-02T00:48:36.326Z,1020
2023-01-02T00:50:36.375Z,1020
2023-01-02T00:52:36.440Z,1020
2023-01-02T00:54:36.754Z,1020
2023-01-02T00:56:36.411Z,1020
2023-01-02T00:58:36.411Z,1020
2023-01-02T01:00:36.766Z,1020
2023-01-02T01:02:36.433Z,1020
2023-01-02T01:04:36.779Z,1020
2023-01-02T01:06:36.961Z,1020
2023-01-02T01:08:36.434Z,1020
2023-01-02T01:10:37.714Z,1020
2023-01-02T01:12:37.258Z,1020
2023-01-02T01:14:36.727Z,1020
2023-01-02T01:16:36.877Z,1020
2023-01-02T01:18:37.256Z,1020
2023-01-02T01:20:36.425Z,1020
2023-01-02T01:22:37.441Z,1020
2023-01-02T01:24:36.901Z,1020
2023-01-02T01:26:36.900Z,1020
2023-01-02T01:28:36.482Z,1020
2023-01-02T01:30:36.003Z,1020
2023-01-02T01:32:38.173Z,1020
2023-01-02T01:34:36.841Z,1020
2023-01-02T01:36:35.993Z,1020
2023-01-02T01:38:36.805Z,1020
2023-01-02T01:40:37.582Z,1020
2023-01-02T01:42:36.035Z,1020
2023-01-02T01:44:36.940Z,1020
2023-01-02T01:48:36.901Z,1020
2023-01-02T01:50:36.010Z,1020
2023-01-02T01:52:37.354Z,1020
2023-01-02T01:54:36.952Z,1020
2023-01-02T01:56:36.840Z,1020
2023-01-02T01:58:36.950Z,1020
2023-01-02T02:00:36.462Z,1020
2023-01-02T02:02:36.882Z,1020
2023-01-02T02:04:36.806Z,1020
2023-01-02T02:06:36.441Z,1020
2023-01-02T02:08:37.389Z,1020
2023-01-02T02:10:37.226Z,1020
2023-01-02T02:12:36.049Z,1020
2023-01-02T02:14:36.059Z,1020
2023-01-02T02:16:36.052Z,1020
2023-01-02T02:18:36.020Z,1020
2023-01-02T02:20:36.915Z,1020
2023-01-02T02:22:36.897Z,1020
2023-01-02T02:24:36.947Z,1020
2023-01-02T02:26:36.522Z,1020
2023-01-02T02:28:36.032Z,1020
2023-01-02T02:30:36.039Z,1020
2023-01-02T02:32:36.956Z,1020
2023-01-02T02:34:36.952Z,1020
2023-01-02T02:36:36.453Z,1020
2023-01-02T02:38:36.896Z,1020
2023-01-02T02:40:36.541Z,1020
2023-01-02T02:42:36.949Z,1020
2023-01-02T02:44:36.881Z,1020
2023-01-02T02:46:36.919Z,1020
2023-01-02T02:48:39.458Z,1020
2023-01-02T02:50:36.132Z,1020
2023-01-02T02:52:36.550Z,1020
2023-01-02T02:54:36.531Z,1020
2023-01-02T02:56:36.625Z,1020
2023-01-02T02:58:36.540Z,1020
2023-01-02T03:00:37.324Z,1020
2023-01-02T03:02:36.984Z,1019
2023-01-02T03:04:36.075Z,1019
2023-01-02T03:06:37.338Z,1019
2023-01-02T03:08:36.475Z,1019
2023-01-02T03:10:36.917Z,1019
2023-01-02T03:12:36.588Z,1019
2023-01-02T03:14:37.706Z,1019
2023-01-02T03:16:36.972Z,1019
2023-01-02T03:18:36.480Z,1019
2023-01-02T03:20:36.463Z,1019
2023-01-02T03:22:37.750Z,1019
2023-01-02T03:24:36.046Z,1019
2023-01-02T03:26:37.742Z,1019
2023-01-02T03:28:37.197Z,1019
2023-01-02T03:30:37.014Z,1019
2023-01-02T03:32:36.508Z,1019
2023-01-02T03:34:36.953Z,1019
2023-01-02T03:36:37.247Z,1019
2023-01-02T03:38:37.655Z,1019
2023-01-02T03:40:36.983Z,1019
2023-01-02T03:44:36.054Z,1019
2023-01-02T03:46:36.969Z,1019
2023-01-02T03:48:36.977Z,1020
2023-01-02T03:50:36.064Z,1020
2023-01-02T03:52:36.601Z,1020
2023-01-02T03:54:36.074Z,1019
2023-01-02T03:56:36.874Z,1019
2023-01-02T03:58:36.482Z,1019
2023-01-02T04:00:36.974Z,1019
2023-01-02T04:02:37.955Z,1019
2023-01-02T04:04:36.627Z,1019
2023-01-02T04:06:36.059Z,1019
2023-01-02T04:08:36.427Z,1019
2023-01-02T04:10:36.967Z,1019
2023-01-02T04:12:37.413Z,1019
2023-01-02T04:14:36.071Z,1019
2023-01-02T04:16:38.100Z,1019
2023-01-02T04:18:40.265Z,1019
2023-01-02T04:20:36.079Z,1019
2023-01-02T04:22:36.990Z,1019
2023-01-02T04:24:36.103Z,1019
2023-01-02T04:26:36.084Z,1019
2023-01-02T04:28:36.971Z,1019
2023-01-02T04:30:36.507Z,1019
2023-01-02T04:34:36.509Z,1019
2023-01-02T04:36:36.552Z,1019
2023-01-02T04:38:36.107Z,1020
2023-01-02T04:40:36.085Z,1020
2023-01-02T04:42:36.629Z,1020
2023-01-02T04:44:36.090Z,1020
2023-01-02T04:46:37.815Z,1020
2023-01-02T04:48:37.572Z,1020
2023-01-02T04:50:36.974Z,1020
2023-01-02T04:52:37.267Z,1020
2023-01-02T04:54:36.515Z,1020
2023-01-02T04:56:38.447Z,1020
2023-01-02T04:58:36.428Z,1020
2023-01-02T05:00:37.019Z,1020
2023-01-02T05:02:36.775Z,1020
2023-01-02T05:04:36.821Z,1020
2023-01-02T05:06:36.608Z,1020
2023-01-02T05:08:36.577Z,1020
2023-01-02T05:10:37.856Z,1020
2023-01-02T05:12:36.548Z,1020
2023-01-02T05:14:37.704Z,1020
2023-01-02T05:16:37.447Z,1020
2023-01-02T05:18:36.539Z,1020
2023-01-02T05:20:36.967Z,1020
2023-01-02T05:22:36.547Z,1020
2023-01-02T05:24:37.019Z,1020
2023-01-02T05:26:36.425Z,1020
2023-01-02T05:28:38.652Z,1020
2023-01-02T05:30:37.808Z,1020
2023-01-02T05:32:37.000Z,1020
2023-01-02T05:34:37.267Z,1020
2023-01-02T05:38:36.525Z,1020
2023-01-02T05:40:36.589Z,1020
2023-01-02T05:42:37.338Z,1020
2023-01-02T05:44:36.112Z,1020
2023-01-02T05:46:37.453Z,1020
2023-01-02T05:48:36.462Z,1020
2023-01-02T05:50:36.115Z,1020
2023-01-02T05:52:40.199Z,1020
2023-01-02T05:54:36.595Z,1019
2023-01-02T05:56:37.642Z,1020
2023-01-02T05:58:37.398Z,1019
2023-01-02T06:00:36.124Z,1020
2023-01-02T06:02:37.142Z,1020
2023-01-02T06:04:37.016Z,1020
2023-01-02T06:06:36.904Z,1020
2023-01-02T06:08:36.993Z,1020
2023-01-02T06:12:36.575Z,1020
2023-01-02T06:14:36.110Z,1020
2023-01-02T06:16:37.541Z,1020
2023-01-02T06:18:36.614Z,1020
2023-01-02T06:20:36.649Z,1020
2023-01-02T06:22:36.966Z,1020
2023-01-02T06:24:36.599Z,1020
2023-01-02T06:26:37.042Z,1020
2023-01-02T06:28:37.491Z,1020
2023-01-02T06:30:36.119Z,1019
2023-01-02T06:32:36.152Z,1020
2023-01-02T06:34:37.404Z,1020
2023-01-02T06:36:36.641Z,1020
2023-01-02T06:38:36.921Z,1020
2023-01-02T06:40:37.010Z,1020
2023-01-02T06:42:36.179Z,1020
2023-01-02T06:44:36.134Z,1020
2023-01-02T06:46:36.668Z,1020
2023-01-02T06:48:37.037Z,1020
2023-01-02T06:50:36.135Z,1020
2023-01-02T06:52:36.172Z,1020
2023-01-02T06:54:36.923Z,1020
2023-01-02T06:56:37.069Z,1020
2023-01-02T06:58:36.127Z,1020
2023-01-02T07:00:36.134Z,1020
2023-01-02T07:04:36.988Z,1020
2023-01-02T07:06:36.680Z,1020
2023-01-02T07:08:37.068Z,1020
2023-01-02T07:10:37.462Z,1020
2023-01-02T07:12:37.376Z,1020
2023-01-02T07:14:36.138Z,1020
2023-01-02T07:16:36.169Z,1020
2023-01-02T07:18:37.401Z,1020
2023-01-02T07:20:37.466Z,1020
2023-01-02T07:22:36.160Z,1020
2023-01-02T07:24:37.484Z,1020
2023-01-02T07:26:37.032Z,1020
2023-01-02T07:28:36.170Z,1020
2023-01-02T07:30:36.696Z,1020
2023-01-02T07:32:36.596Z,1020
2023-01-02T07:34:37.032Z,1020
2023-01-02T07:36:36.579Z,1020
2023-01-02T07:38:36.880Z,1020
2023-01-02T07:40:37.482Z,1020
2023-01-02T07:42:37.375Z,1020
2023-01-02T07:44:37.415Z,1020
2023-01-02T07:46:36.611Z,1020
2023-01-02T07:48:36.183Z,1020
2023-01-02T07:50:37.534Z,1020
2023-01-02T07:52:37.084Z,1020
2023-01-02T07:54:36.165Z,1020
2023-01-02T07:56:36.599Z,1020
2023-01-02T08:00:36.626Z,1020
2023-01-02T08:02:36.249Z,1020
2023-01-02T08:04:36.515Z,1020
2023-01-02T08:06:37.058Z,1020
2023-01-02T08:08:37.450Z,1020
2023-01-02T08:10:37.285Z,1020
2023-01-02T08:12:37.437Z,1020
2023-01-02T08:14:37.657Z,1020
2023-01-02T08:16:36.992Z,1020
2023-01-02T08:18:36.702Z,1020
2023-01-02T08:20:37.070Z,1020
2023-01-02T08:22:36.614Z,1020
2023-01-02T08:24:37.064Z,1020
2023-01-02T08:26:37.394Z,1020
2023-01-02T08:28:36.224Z,1020
2023-01-02T08:30:37.135Z,1020
2023-01-02T08:32:37.214Z,1020
2023-01-02T08:34:36.618Z,1020
2023-01-02T08:36:36.666Z,1020
2023-01-02T08:38:36.227Z,1020
2023-01-02T08:40:37.014Z,1020
2023-01-02T08:42:37.341Z,1020
2023-01-02T08:44:36.613Z,1020
2023-01-02T08:46:40.266Z,1020
2023-01-02T08:48:36.198Z,1020
2023-01-02T08:50:36.695Z,1020
2023-01-02T08:54:36.976Z,1020
2023-01-02T08:56:37.094Z,1020
2023-01-02T08:58:36.632Z,1020
2023-01-02T09:00:37.548Z,1020
2023-01-02T09:02:36.770Z,1020
2023-01-02T09:04:36.677Z,1020
2023-01-02T09:06:37.051Z,1021
2023-01-02T09:08:36.637Z,1021
2023-01-02T09:10:37.072Z,1021
2023-01-02T09:12:37.087Z,1021
2023-01-02T09:14:37.063Z,1021
2023-01-02T09:16:36.695Z,1021
2023-01-02T09:18:37.058Z,1021
2023-01-02T09:20:37.136Z,1021
2023-01-02T09:22:37.381Z,1021
2023-01-02T09:24:37.122Z,1021
2023-01-02T09:26:37.089Z,1021
2023-01-02T09:28:37.465Z,1021
2023-01-02T09:30:36.187Z,1021
2023-01-02T09:32:36.628Z,1020
2023-01-02T09:34:36.659Z,1020
2023-01-02T09:38:36.631Z,1020
2023-01-02T09:40:37.071Z,1020
2023-01-02T09:42:37.046Z,1020
2023-01-02T09:44:36.987Z,1020
2023-01-02T09:46:36.856Z,1020
2023-01-02T09:48:37.545Z,1020
2023-01-02T09:50:37.194Z,1020
2023-01-02T09:52:36.668Z,1020
2023-01-02T09:54:37.159Z,1020
2023-01-02T09:56:37.595Z,1020
2023-01-02T09:58:37.101Z,1020
2023-01-02T10:00:36.222Z,1020
2023-01-02T10:02:37.167Z,1020
2023-01-02T10:04:37.135Z,1020
2023-01-02T10:06:37.536Z,1020
2023-01-02T10:08:37.381Z,1020
2023-01-02T10:10:36.198Z,1020
2023-01-02T10:12:37.223Z,1020
2023-01-02T10:14:43.875Z,1020
2023-01-02T10:16:37.200Z,1020
2023-01-02T10:18:37.145Z,1020
2023-01-02T10:20:36.907Z,1020
2023-01-02T10:22:37.177Z,1020
2023-01-02T10:24:37.256Z,1020
2023-01-02T10:26:37.201Z,1020
2023-01-02T10:28:37.137Z,1020
2023-01-02T10:30:36.795Z,1020
2023-01-02T10:32:37.355Z,1020
2023-01-02T10:34:37.228Z,1020
2023-01-02T10:36:37.187Z,1020
2023-01-02T10:38:37.179Z,1020
2023-01-02T10:40:36.775Z,1020
2023-01-02T10:42:36.320Z,1020
2023-01-02T10:44:37.315Z,1020
2023-01-02T10:46:36.790Z,1020
2023-01-02T10:48:37.214Z,1020
2023-01-02T10:50:37.116Z,1020
2023-01-02T10:52:36.378Z,1020
2023-01-02T10:54:36.306Z,1020
2023-01-02T10:56:37.178Z,1020
2023-01-02T10:58:38.113Z,1020
2023-01-02T11:00:36.419Z,1020
2023-01-02T11:02:36.392Z,1020
2023-01-02T11:04:36.307Z,1020
2023-01-02T11:06:39.911Z,1020
2023-01-02T11:08:37.479Z,1020
2023-01-02T11:10:36.338Z,1020
2023-01-02T11:12:36.772Z,1020
2023-01-02T11:14:36.291Z,1020
2023-01-02T11:16:37.691Z,1020
2023-01-02T11:18:36.302Z,1020
2023-01-02T11:20:37.761Z,1020
2023-01-02T11:22:37.126Z,1020
2023-01-02T11:24:36.289Z,1020
2023-01-02T11:26:37.185Z,1020
2023-01-02T11:28:36.311Z,1020
2023-01-02T11:30:36.339Z,1020
2023-01-02T11:32:36.308Z,1020
2023-01-02T11:34:36.829Z,1020
2023-01-02T11:36:37.182Z,1020
2023-01-02T11:38:35.960Z,1020
2023-01-02T11:40:37.126Z,1020
2023-01-02T11:42:36.802Z,1020
2023-01-02T11:44:36.790Z,1020
2023-01-02T11:46:37.203Z,1020
2023-01-02T11:48:35.961Z,1020
2023-01-02T11:50:36.818Z,1020
2023-01-02T11:52:37.115Z,1020
2023-01-02T11:56:38.043Z,1020
2023-01-02T11:58:35.964Z,1020
2023-01-02T12:00:36.805Z,1020
2023-01-02T12:02:36.789Z,1020
2023-01-02T12:04:36.297Z,1020
2023-01-02T12:06:37.295Z,1020
2023-01-02T12:08:42.267Z,1020
2023-01-02T12:10:38.075Z,1020
2023-01-02T12:12:37.212Z,1020
2023-01-02T12:14:37.245Z,1020
2023-01-02T12:18:35.957Z,1020
2023-01-02T12:20:36.407Z,1020
2023-01-02T12:22:36.320Z,1020
2023-01-02T12:26:37.277Z,1020
2023-01-02T12:28:35.970Z,1020
2023-01-02T12:30:36.821Z,1020
2023-01-02T12:32:37.957Z,1020
2023-01-02T12:34:37.614Z,1020
2023-01-02T12:36:36.825Z,1020
2023-01-02T12:38:36.313Z,1020
2023-01-02T12:40:35.955Z,1020
2023-01-02T12:42:36.768Z,1020
2023-01-02T12:44:37.213Z,1021
2023-01-02T12:46:37.303Z,1020
2023-01-02T12:48:36.825Z,1021
2023-01-02T12:50:37.617Z,1021
2023-01-02T12:52:36.317Z,1021
2023-01-02T12:54:36.290Z,1020
2023-01-02T12:56:35.951Z,1020
2023-01-02T12:58:37.720Z,1020
2023-01-02T13:00:37.140Z,1020
2023-01-02T13:02:37.200Z,1020
2023-01-02T13:04:37.183Z,1021
2023-01-02T13:06:44.210Z,1021
2023-01-02T13:08:37.733Z,1021
2023-01-02T13:10:36.831Z,1021
2023-01-02T13:12:37.137Z,1021
2023-01-02T13:14:36.813Z,1021
2023-01-02T13:16:37.490Z,1021
2023-01-02T13:18:37.649Z,1021
2023-01-02T13:20:35.985Z,1021
2023-01-02T13:22:36.348Z,1021
2023-01-02T13:24:36.853Z,1021
2023-01-02T13:26:37.208Z,1021
2023-01-02T13:28:37.352Z,1021
2023-01-02T13:30:37.835Z,1021
2023-01-02T13:32:35.958Z,1021
2023-01-02T13:34:37.280Z,1021
2023-01-02T13:36:36.860Z,1021
2023-01-02T13:38:36.344Z,1021
2023-01-02T13:40:36.485Z,1021
2023-01-02T13:42:36.400Z,1021
2023-01-02T13:44:36.985Z,1021
2023-01-02T13:47:02.500Z,1021
2023-01-02T13:50:36.926Z,1021
2023-01-02T13:52:37.304Z,1021
2023-01-02T13:54:36.329Z,1021
2023-01-02T13:56:37.268Z,1021
2023-01-02T14:00:36.357Z,1021
2023-01-02T14:02:37.826Z,1021
2023-01-02T14:04:36.384Z,1021
2023-01-02T14:06:36.363Z,1021
2023-01-02T14:08:38.202Z,1021
2023-01-02T14:10:37.308Z,1021
2023-01-02T14:12:37.283Z,1021
2023-01-02T14:16:04.510Z,1021
2023-01-02T14:20:04.019Z,1021
2023-01-02T14:22:02.050Z,1021
2023-01-02T14:26:02.574Z,1021
2023-01-02T14:27:58.670Z,1021
2023-01-02T14:30:05.216Z,1021
2023-01-02T14:32:02.640Z,1021
2023-01-02T14:33:58.690Z,1021
2023-01-02T14:36:05.497Z,1021
2023-01-02T14:38:00.576Z,1021
2023-01-02T14:40:00.910Z,1021
2023-01-02T14:44:00.544Z,1021
2023-01-02T14:46:04.862Z,1021
2023-01-02T14:48:05.318Z,1021
2023-01-02T14:50:04.733Z,1021
2023-01-02T14:52:03.626Z,1021
2023-01-02T14:54:05.251Z,1021
2023-01-02T14:56:01.758Z,1021
2023-01-02T14:58:03.120Z,1021
2023-01-02T15:00:05.302Z,1021
2023-01-02T15:02:03.293Z,1021
2023-01-02T15:04:04.495Z,1021
2023-01-02T15:06:05.297Z,1021
2023-01-02T15:08:05.341Z,1022
2023-01-02T15:10:04.625Z,1022
2023-01-02T15:14:04.530Z,1022
2023-01-02T15:16:04.083Z,1022
2023-01-02T15:18:04.853Z,1022
2023-01-02T15:20:02.214Z,1022
2023-01-02T15:22:01.371Z,1022
2023-01-02T15:26:31.149Z,1022
2023-01-02T15:28:02.974Z,1022
2023-01-02T15:30:04.773Z,1022
2023-01-02T15:32:01.998Z,1022
2023-01-02T15:34:03.555Z,1022
2023-01-02T15:38:05.472Z,1022
2023-01-02T15:40:04.544Z,1022
2023-01-02T15:42:11.803Z,1022
2023-01-02T15:43:58.652Z,1022
2023-01-02T15:45:58.647Z,1022
2023-01-02T15:50:00.868Z,1022
2023-01-02T15:51:58.639Z,1022
2023-01-02T15:56:02.379Z,1022
2023-01-02T15:58:02.879Z,1022
2023-01-02T16:00:05.911Z,1022
2023-01-02T16:02:00.225Z,1022
2023-01-02T16:04:04.778Z,1022
2023-01-02T16:06:05.352Z,1022
2023-01-02T16:07:58.681Z,1022
2023-01-02T16:09:59.100Z,1022
2023-01-02T16:13:58.691Z,1022
2023-01-02T16:16:15.218Z,1022
2023-01-02T16:19:59.179Z,1022
2023-01-02T16:21:58.662Z,1022
2023-01-02T16:24:05.413Z,1022
2023-01-02T16:25:58.658Z,1022
2023-01-02T16:28:01.179Z,1022
2023-01-02T16:30:05.451Z,1022
2023-01-02T16:32:02.707Z,1023
2023-01-02T16:34:04.166Z,1023
2023-01-02T16:37:58.669Z,1023
2023-01-02T16:39:58.650Z,1023
2023-01-02T16:42:05.257Z,1023
2023-01-02T16:43:58.651Z,1023
2023-01-02T16:46:04.775Z,1023
2023-01-02T16:48:04.063Z,1023
2023-01-02T16:50:00.595Z,1023
2023-01-02T16:51:58.691Z,1023
2023-01-02T16:54:04.788Z,1023
2023-01-02T16:55:58.643Z,1023
2023-01-02T16:57:58.693Z,1023
2023-01-02T17:00:05.699Z,1023
2023-01-02T17:04:01.961Z,1023
2023-01-02T17:07:58.659Z,1023
2023-01-02T17:10:02.390Z,1023
2023-01-02T17:12:05.322Z,1023
2023-01-02T17:14:03.742Z,1023
2023-01-02T17:16:04.666Z,1023
2023-01-02T17:19:58.643Z,1023
2023-01-02T17:21:58.649Z,1023
2023-01-02T17:26:00.966Z,1023
2023-01-02T17:27:58.715Z,1023
2023-01-02T17:30:05.386Z,1023
2023-01-02T17:31:58.666Z,1023
2023-01-02T17:33:58.651Z,1023
2023-01-02T17:37:58.653Z,1023
2023-01-02T17:40:00.646Z,1024
2023-01-02T17:42:05.299Z,1023
2023-01-02T17:44:03.723Z,1023
2023-01-02T17:46:16.537Z,1023
2023-01-02T17:50:00.650Z,1023
2023-01-02T17:52:01.449Z,1023
2023-01-02T17:56:20.237Z,1023
2023-01-02T17:57:58.661Z,1023
2023-01-02T18:00:05.806Z,1023
2023-01-02T18:02:02.550Z,1024
2023-01-02T18:03:58.659Z,1024
2023-01-02T18:07:58.662Z,1024
2023-01-02T18:10:08.410Z,1024
2023-01-02T18:12:05.364Z,1024
2023-01-02T18:13:58.662Z,1024
2023-01-02T18:15:58.696Z,1024
2023-01-02T18:18:05.341Z,1024
2023-01-02T18:19:58.706Z,1024
2023-01-02T18:21:58.664Z,1024
2023-01-02T18:25:58.691Z,1024
2023-01-02T18:27:58.681Z,1024
2023-01-02T18:32:00.102Z,1024
2023-01-02T18:37:53.921Z,1024
2023-01-02T18:39:50.508Z,1024
2023-01-02T18:41:50.969Z,1024
2023-01-02T18:43:49.129Z,1024
2023-01-02T18:45:52.400Z,1024
2023-01-02T18:49:48.745Z,1024
2023-01-02T18:51:52.070Z,1024
2023-01-02T18:55:48.773Z,1024
2023-01-02T18:57:52.943Z,1024
2023-01-02T18:59:53.056Z,1024
2023-01-02T19:01:50.249Z,1024
2023-01-02T19:03:53.547Z,1024
2023-01-02T19:05:53.454Z,1024
2023-01-02T19:07:53.372Z,1024
2023-01-02T19:09:50.489Z,1024
2023-01-02T19:13:56.873Z,1024
2023-01-02T19:15:51.551Z,1024
2023-01-02T19:17:53.398Z,1024
2023-01-02T19:19:53.113Z,1024
2023-01-02T19:21:52.801Z,1024
2023-01-02T19:23:53.602Z,1024
2023-01-02T19:25:53.094Z,1024
2023-01-02T19:27:51.532Z,1024
2023-01-02T19:29:53.072Z,1024
2023-01-02T19:31:53.106Z,1024
2023-01-02T19:33:49.166Z,1024
2023-01-02T19:35:53.459Z,1024
2023-01-02T19:37:52.686Z,1024
2023-01-02T19:39:53.183Z,1024
2023-01-02T19:43:53.112Z,1024
2023-01-02T19:45:52.003Z,1024
2023-01-02T19:47:53.231Z,1024
2023-01-02T19:49:51.913Z,1024
2023-01-02T19:51:50.154Z,1024
2023-01-02T19:55:50.133Z,1024
2023-01-02T19:57:52.775Z,1024
2023-01-02T19:59:52.942Z,1024
2023-01-02T20:01:52.887Z,1024
2023-01-02T20:03:48.833Z,1024
2023-01-02T20:07:51.761Z,1025
2023-01-02T20:09:50.536Z,1024
2023-01-02T20:11:53.545Z,1025
2023-01-02T20:13:53.263Z,1025
2023-01-02T20:15:52.506Z,1025
2023-01-02T20:19:52.392Z,1025
2023-01-02T20:21:52.669Z,1025
2023-01-02T20:23:56.502Z,1025
2023-01-02T20:25:48.837Z,1025
2023-01-02T20:27:49.171Z,1025
2023-01-02T20:31:49.212Z,1025
2023-01-02T20:33:51.021Z,1025
2023-01-02T20:35:53.470Z,1025
2023-01-02T20:37:53.339Z,1025
2023-01-02T20:39:53.175Z,1025
2023-01-02T20:43:48.856Z,1025
2023-01-02T20:45:52.535Z,1025
2023-01-02T20:47:53.750Z,1025
2023-01-02T20:49:52.768Z,1025
2023-01-02T20:51:53.488Z,1025
2023-01-02T20:53:53.716Z,1025
2023-01-02T20:55:51.466Z,1025
2023-01-02T20:57:53.351Z,1025
2023-01-02T21:01:52.521Z,1025
2023-01-02T21:03:51.855Z,1025
2023-01-02T21:05:53.793Z,1025
2023-01-02T21:07:51.964Z,1025
2023-01-02T21:09:48.846Z,1025
2023-01-02T21:13:50.198Z,1025
2023-01-02T21:15:50.188Z,1025
2023-01-02T21:17:52.839Z,1025
2023-01-02T21:19:52.660Z,1025
2023-01-02T21:21:52.788Z,1025
2023-01-02T21:23:53.514Z,1025
2023-01-02T21:25:48.747Z,1025
2023-01-02T21:27:50.152Z,1025
2023-01-02T21:33:50.195Z,1025
2023-01-02T21:35:53.533Z,1025
2023-01-02T21:37:52.293Z,1025
2023-01-02T21:43:48.820Z,1026
2023-01-02T21:45:51.173Z,1026
2023-01-02T21:49:50.186Z,1026
2023-01-02T21:51:48.807Z,1026
2023-01-02T21:53:52.814Z,1026
2023-01-02T21:55:52.502Z,1026
2023-01-02T21:58:12.721Z,1026
2023-01-02T21:59:53.628Z,1026
2023-01-02T22:01:53.575Z,1026
2023-01-02T22:03:50.545Z,1026
2023-01-02T22:07:52.370Z,1026
2023-01-02T22:09:49.149Z,1026
2023-01-02T22:13:50.488Z,1026
2023-01-02T22:15:52.330Z,1026
2023-01-02T22:17:53.551Z,1026
2023-01-02T22:19:52.871Z,1026
2023-01-02T22:21:51.122Z,1026
2023-01-02T22:23:53.507Z,1026
2023-01-02T22:25:51.361Z,1026
2023-01-02T22:27:51.059Z,1026
2023-01-02T22:30:21.889Z,1026
2023-01-02T22:31:51.529Z,1026
2023-01-02T22:33:52.055Z,1027
2023-01-02T22:35:52.916Z,1027
2023-01-02T22:37:52.873Z,1027
2023-01-02T22:39:51.779Z,1027
2023-01-02T22:41:53.499Z,1027
2023-01-02T22:43:48.784Z,1027
2023-01-02T22:45:49.319Z,1027
2023-01-02T22:49:51.519Z,1027
2023-01-02T22:52:06.316Z,1027
2023-01-02T22:53:53.839Z,1027
2023-01-02T22:55:51.984Z,1027
2023-01-02T22:57:51.638Z,1027
2023-01-02T22:59:53.610Z,1027
2023-01-02T23:01:52.944Z,1027
2023-01-02T23:03:50.132Z,1027
2023-01-02T23:07:49.740Z,1027
2023-01-02T23:09:49.239Z,1027
2023-01-02T23:11:53.146Z,1027
2023-01-02T23:13:56.220Z,1027
2023-01-02T23:15:50.631Z,1027
2023-01-02T23:19:51.968Z,1027
2023-01-02T23:21:50.555Z,1027
2023-01-02T23:25:53.265Z,1027
2023-01-02T23:27:50.745Z,1027
2023-01-02T23:29:53.560Z,1027
2023-01-02T23:31:51.101Z,1027
2023-01-02T23:33:51.837Z,1027
2023-01-02T23:35:53.405Z,1027
2023-01-02T23:37:51.985Z,1027
2023-01-02T23:39:51.124Z,1027
2023-01-02T23:41:52.971Z,1027
2023-01-02T23:43:52.871Z,1027
2023-01-02T23:45:52.415Z,1027
2023-01-02T23:47:53.517Z,1027
2023-01-02T23:49:51.120Z,1027
2023-01-02T23:51:48.821Z,1028
2023-01-02T23:55:51.440Z,1027
2023-01-02T23:57:52.454Z,1027
2023-01-02T23:59:52.101Z,1028
